sensor_id;sensor_type;location;lat;lon;timestamp;P1;durP1;ratioP1;P2;durP2;ratioP2
51216;SDS011;37283;49.760;8.648;2024-01-11T00:00:26;38.00;;;21.00;;
51216;SDS011;37283;49.760;8.648;2024-01-11T00:02:52;36.85;;;22.25;;
51216;SDS011;37283;49.760;8.648;2024-01-11T00:05:19;40.10;;;22.55;;
51216;SDS011;37283;49.760;8.648;2024-01-11T00:07:45;37.90;;;22.60;;
51216;SDS011;37283;49.760;8.648;2024-01-11T00:10:12;45.42;;;24.50;;
51216;SDS011;37283;49.760;8.648;2024-01-11T00:12:39;42.30;;;23.40;;
51216;SDS011;37283;49.760;8.648;2024-01-11T00:15:05;38.30;;;22.95;;
51216;SDS011;37283;49.760;8.648;2024-01-11T00:17:32;44.13;;;24.33;;
51216;SDS011;37283;49.760;8.648;2024-01-11T00:20:00;46.97;;;24.92;;
51216;SDS011;37283;49.760;8.648;2024-01-11T00:22:27;42.40;;;24.45;;
51216;SDS011;37283;49.760;8.648;2024-01-11T00:24:54;46.65;;;25.35;;
51216;SDS011;37283;49.760;8.648;2024-01-11T00:27:20;45.15;;;25.30;;
51216;SDS011;37283;49.760;8.648;2024-01-11T00:29:47;43.50;;;26.15;;
51216;SDS011;37283;49.760;8.648;2024-01-11T00:32:13;44.33;;;24.58;;
51216;SDS011;37283;49.760;8.648;2024-01-11T00:34:40;37.42;;;23.08;;
51216;SDS011;37283;49.760;8.648;2024-01-11T00:37:07;42.17;;;24.92;;
51216;SDS011;37283;49.760;8.648;2024-01-11T00:39:33;45.47;;;24.27;;
51216;SDS011;37283;49.760;8.648;2024-01-11T00:42:00;46.20;;;25.40;;
51216;SDS011;37283;49.760;8.648;2024-01-11T00:44:26;42.97;;;25.17;;
51216;SDS011;37283;49.760;8.648;2024-01-11T00:46:53;46.92;;;26.08;;
51216;SDS011;37283;49.760;8.648;2024-01-11T00:49:19;44.22;;;25.13;;
51216;SDS011;37283;49.760;8.648;2024-01-11T00:51:46;44.78;;;25.35;;
51216;SDS011;37283;49.760;8.648;2024-01-11T00:54:13;45.92;;;24.67;;
51216;SDS011;37283;49.760;8.648;2024-01-11T00:56:40;47.80;;;26.20;;
51216;SDS011;37283;49.760;8.648;2024-01-11T00:59:06;48.88;;;25.88;;
51216;SDS011;37283;49.760;8.648;2024-01-11T01:01:33;46.92;;;26.02;;
51216;SDS011;37283;49.760;8.648;2024-01-11T01:03:59;46.70;;;26.95;;
51216;SDS011;37283;49.760;8.648;2024-01-11T01:06:28;48.58;;;26.77;;
51216;SDS011;37283;49.760;8.648;2024-01-11T01:08:58;48.03;;;26.00;;
51216;SDS011;37283;49.760;8.648;2024-01-11T01:11:34;47.22;;;27.98;;
51216;SDS011;37283;49.760;8.648;2024-01-11T01:14:01;46.40;;;26.55;;
51216;SDS011;37283;49.760;8.648;2024-01-11T01:16:28;50.75;;;26.55;;
51216;SDS011;37283;49.760;8.648;2024-01-11T01:21:24;47.10;;;26.27;;
51216;SDS011;37283;49.760;8.648;2024-01-11T01:23:50;51.00;;;27.35;;
51216;SDS011;37283;49.760;8.648;2024-01-11T01:26:17;48.28;;;26.90;;
51216;SDS011;37283;49.760;8.648;2024-01-11T01:28:48;53.72;;;28.20;;
51216;SDS011;37283;49.760;8.648;2024-01-11T01:31:16;55.85;;;27.92;;
51216;SDS011;37283;49.760;8.648;2024-01-11T01:33:42;54.67;;;28.02;;
51216;SDS011;37283;49.760;8.648;2024-01-11T01:36:12;52.03;;;28.75;;
51216;SDS011;37283;49.760;8.648;2024-01-11T01:38:38;47.72;;;27.23;;
51216;SDS011;37283;49.760;8.648;2024-01-11T01:41:05;47.22;;;27.42;;
51216;SDS011;37283;49.760;8.648;2024-01-11T01:43:32;48.42;;;28.27;;
51216;SDS011;37283;49.760;8.648;2024-01-11T01:45:59;51.35;;;27.65;;
51216;SDS011;37283;49.760;8.648;2024-01-11T01:48:26;48.03;;;27.35;;
51216;SDS011;37283;49.760;8.648;2024-01-11T01:50:54;46.53;;;26.77;;
51216;SDS011;37283;49.760;8.648;2024-01-11T01:53:21;48.40;;;27.05;;
51216;SDS011;37283;49.760;8.648;2024-01-11T01:55:49;50.75;;;26.83;;
51216;SDS011;37283;49.760;8.648;2024-01-11T01:58:17;51.08;;;26.35;;
51216;SDS011;37283;49.760;8.648;2024-01-11T02:00:44;45.13;;;25.48;;
51216;SDS011;37283;49.760;8.648;2024-01-11T02:03:12;43.90;;;23.73;;
51216;SDS011;37283;49.760;8.648;2024-01-11T02:05:41;44.25;;;25.67;;
51216;SDS011;37283;49.760;8.648;2024-01-11T02:08:08;48.75;;;25.10;;
51216;SDS011;37283;49.760;8.648;2024-01-11T02:10:38;47.03;;;24.42;;
51216;SDS011;37283;49.760;8.648;2024-01-11T02:13:05;43.42;;;24.83;;
51216;SDS011;37283;49.760;8.648;2024-01-11T02:15:35;43.53;;;24.08;;
51216;SDS011;37283;49.760;8.648;2024-01-11T02:18:02;41.50;;;24.15;;
51216;SDS011;37283;49.760;8.648;2024-01-11T02:20:30;44.30;;;23.25;;
51216;SDS011;37283;49.760;8.648;2024-01-11T02:22:58;41.03;;;22.73;;
51216;SDS011;37283;49.760;8.648;2024-01-11T02:25:28;45.20;;;22.65;;
51216;SDS011;37283;49.760;8.648;2024-01-11T02:27:54;36.35;;;21.48;;
51216;SDS011;37283;49.760;8.648;2024-01-11T02:30:21;36.47;;;21.55;;
51216;SDS011;37283;49.760;8.648;2024-01-11T02:32:48;43.67;;;22.58;;
51216;SDS011;37283;49.760;8.648;2024-01-11T02:35:16;36.60;;;20.60;;
51216;SDS011;37283;49.760;8.648;2024-01-11T02:37:43;35.72;;;21.02;;
51216;SDS011;37283;49.760;8.648;2024-01-11T02:40:10;33.53;;;18.90;;
51216;SDS011;37283;49.760;8.648;2024-01-11T02:42:37;33.28;;;20.02;;
51216;SDS011;37283;49.760;8.648;2024-01-11T02:45:03;33.15;;;19.50;;
51216;SDS011;37283;49.760;8.648;2024-01-11T02:47:30;30.77;;;18.80;;
51216;SDS011;37283;49.760;8.648;2024-01-11T02:49:58;34.63;;;19.25;;
51216;SDS011;37283;49.760;8.648;2024-01-11T02:52:24;34.42;;;19.85;;
51216;SDS011;37283;49.760;8.648;2024-01-11T02:54:51;35.15;;;18.83;;
51216;SDS011;37283;49.760;8.648;2024-01-11T02:57:17;33.47;;;19.05;;
51216;SDS011;37283;49.760;8.648;2024-01-11T02:59:44;35.28;;;19.00;;
51216;SDS011;37283;49.760;8.648;2024-01-11T03:02:11;29.52;;;18.27;;
51216;SDS011;37283;49.760;8.648;2024-01-11T03:04:37;31.77;;;19.10;;
51216;SDS011;37283;49.760;8.648;2024-01-11T03:07:04;35.13;;;17.85;;
51216;SDS011;37283;49.760;8.648;2024-01-11T03:09:30;32.67;;;18.48;;
51216;SDS011;37283;49.760;8.648;2024-01-11T03:11:57;32.58;;;17.50;;
51216;SDS011;37283;49.760;8.648;2024-01-11T03:14:23;32.05;;;17.60;;
51216;SDS011;37283;49.760;8.648;2024-01-11T03:16:50;33.33;;;18.30;;
51216;SDS011;37283;49.760;8.648;2024-01-11T03:19:16;35.20;;;17.75;;
51216;SDS011;37283;49.760;8.648;2024-01-11T03:21:43;33.75;;;18.00;;
51216;SDS011;37283;49.760;8.648;2024-01-11T03:24:10;30.88;;;17.77;;
51216;SDS011;37283;49.760;8.648;2024-01-11T03:26:37;30.15;;;17.45;;
51216;SDS011;37283;49.760;8.648;2024-01-11T03:29:03;34.33;;;18.25;;
51216;SDS011;37283;49.760;8.648;2024-01-11T03:31:30;31.05;;;17.00;;
51216;SDS011;37283;49.760;8.648;2024-01-11T03:33:56;30.20;;;16.77;;
51216;SDS011;37283;49.760;8.648;2024-01-11T03:36:23;31.85;;;18.13;;
51216;SDS011;37283;49.760;8.648;2024-01-11T03:38:51;31.05;;;17.52;;
51216;SDS011;37283;49.760;8.648;2024-01-11T03:41:18;28.73;;;16.83;;
51216;SDS011;37283;49.760;8.648;2024-01-11T03:43:46;27.30;;;16.13;;
51216;SDS011;37283;49.760;8.648;2024-01-11T03:46:12;24.52;;;15.60;;
51216;SDS011;37283;49.760;8.648;2024-01-11T03:48:39;26.92;;;15.88;;
51216;SDS011;37283;49.760;8.648;2024-01-11T03:51:05;30.38;;;17.17;;
51216;SDS011;37283;49.760;8.648;2024-01-11T03:53:36;28.85;;;17.73;;
51216;SDS011;37283;49.760;8.648;2024-01-11T03:56:04;28.13;;;15.48;;
51216;SDS011;37283;49.760;8.648;2024-01-11T03:58:31;27.75;;;15.45;;
51216;SDS011;37283;49.760;8.648;2024-01-11T04:00:57;28.70;;;16.23;;
51216;SDS011;37283;49.760;8.648;2024-01-11T04:03:24;25.35;;;14.98;;
51216;SDS011;37283;49.760;8.648;2024-01-11T04:05:50;29.88;;;16.20;;
51216;SDS011;37283;49.760;8.648;2024-01-11T04:08:17;25.73;;;16.50;;
51216;SDS011;37283;49.760;8.648;2024-01-11T04:10:44;33.13;;;17.58;;
51216;SDS011;37283;49.760;8.648;2024-01-11T04:13:10;28.77;;;16.42;;
51216;SDS011;37283;49.760;8.648;2024-01-11T04:15:37;29.42;;;17.45;;
51216;SDS011;37283;49.760;8.648;2024-01-11T04:18:03;29.23;;;17.08;;
51216;SDS011;37283;49.760;8.648;2024-01-11T04:20:30;29.60;;;17.65;;
51216;SDS011;37283;49.760;8.648;2024-01-11T04:22:57;30.92;;;16.85;;
51216;SDS011;37283;49.760;8.648;2024-01-11T04:25:24;28.52;;;17.17;;
51216;SDS011;37283;49.760;8.648;2024-01-11T04:27:50;31.25;;;17.58;;
51216;SDS011;37283;49.760;8.648;2024-01-11T04:30:17;32.65;;;18.55;;
51216;SDS011;37283;49.760;8.648;2024-01-11T04:32:43;30.80;;;19.10;;
51216;SDS011;37283;49.760;8.648;2024-01-11T04:35:10;33.63;;;18.02;;
51216;SDS011;37283;49.760;8.648;2024-01-11T04:37:37;35.80;;;20.52;;
51216;SDS011;37283;49.760;8.648;2024-01-11T04:40:05;36.00;;;20.92;;
51216;SDS011;37283;49.760;8.648;2024-01-11T04:42:33;36.08;;;21.08;;
51216;SDS011;37283;49.760;8.648;2024-01-11T04:45:00;43.47;;;22.38;;
51216;SDS011;37283;49.760;8.648;2024-01-11T04:47:26;36.55;;;21.50;;
51216;SDS011;37283;49.760;8.648;2024-01-11T04:49:53;44.33;;;22.98;;
51216;SDS011;37283;49.760;8.648;2024-01-11T04:52:20;41.28;;;23.55;;
51216;SDS011;37283;49.760;8.648;2024-01-11T04:54:46;40.67;;;22.83;;
51216;SDS011;37283;49.760;8.648;2024-01-11T04:57:13;46.13;;;24.23;;
51216;SDS011;37283;49.760;8.648;2024-01-11T04:59:40;41.22;;;24.05;;
51216;SDS011;37283;49.760;8.648;2024-01-11T05:02:06;49.22;;;25.27;;
51216;SDS011;37283;49.760;8.648;2024-01-11T05:04:33;46.88;;;25.17;;
51216;SDS011;37283;49.760;8.648;2024-01-11T05:06:59;43.40;;;25.17;;
51216;SDS011;37283;49.760;8.648;2024-01-11T05:09:26;43.80;;;25.08;;
51216;SDS011;37283;49.760;8.648;2024-01-11T05:11:53;45.25;;;26.55;;
51216;SDS011;37283;49.760;8.648;2024-01-11T05:14:19;45.95;;;26.48;;
51216;SDS011;37283;49.760;8.648;2024-01-11T05:16:46;44.08;;;25.85;;
51216;SDS011;37283;49.760;8.648;2024-01-11T05:19:12;44.60;;;26.27;;
51216;SDS011;37283;49.760;8.648;2024-01-11T05:21:39;53.97;;;27.58;;
51216;SDS011;37283;49.760;8.648;2024-01-11T05:24:06;50.58;;;26.77;;
51216;SDS011;37283;49.760;8.648;2024-01-11T05:26:36;42.78;;;25.13;;
51216;SDS011;37283;49.760;8.648;2024-01-11T05:29:03;41.05;;;25.33;;
51216;SDS011;37283;49.760;8.648;2024-01-11T05:31:33;44.00;;;25.35;;
51216;SDS011;37283;49.760;8.648;2024-01-11T05:34:00;46.45;;;26.90;;
51216;SDS011;37283;49.760;8.648;2024-01-11T05:36:27;48.38;;;25.55;;
51216;SDS011;37283;49.760;8.648;2024-01-11T05:38:53;46.22;;;26.70;;
51216;SDS011;37283;49.760;8.648;2024-01-11T05:41:20;54.35;;;26.67;;
51216;SDS011;37283;49.760;8.648;2024-01-11T05:43:47;48.28;;;26.15;;
51216;SDS011;37283;49.760;8.648;2024-01-11T05:46:13;48.88;;;27.67;;
51216;SDS011;37283;49.760;8.648;2024-01-11T05:48:40;47.47;;;25.90;;
51216;SDS011;37283;49.760;8.648;2024-01-11T05:51:08;47.60;;;26.77;;
51216;SDS011;37283;49.760;8.648;2024-01-11T05:53:35;45.15;;;25.42;;
51216;SDS011;37283;49.760;8.648;2024-01-11T05:56:06;45.80;;;26.17;;
51216;SDS011;37283;49.760;8.648;2024-01-11T05:58:34;48.17;;;27.67;;
51216;SDS011;37283;49.760;8.648;2024-01-11T06:01:02;45.38;;;24.55;;
51216;SDS011;37283;49.760;8.648;2024-01-11T06:03:30;50.25;;;28.17;;
51216;SDS011;37283;49.760;8.648;2024-01-11T06:06:00;51.53;;;28.45;;
51216;SDS011;37283;49.760;8.648;2024-01-11T06:08:29;53.85;;;28.98;;
51216;SDS011;37283;49.760;8.648;2024-01-11T06:10:57;54.35;;;29.73;;
51216;SDS011;37283;49.760;8.648;2024-01-11T06:13:24;56.47;;;29.75;;
51216;SDS011;37283;49.760;8.648;2024-01-11T06:15:51;52.33;;;28.13;;
51216;SDS011;37283;49.760;8.648;2024-01-11T06:18:18;54.80;;;30.33;;
51216;SDS011;37283;49.760;8.648;2024-01-11T06:20:44;50.60;;;28.75;;
51216;SDS011;37283;49.760;8.648;2024-01-11T06:23:11;56.45;;;29.65;;
51216;SDS011;37283;49.760;8.648;2024-01-11T06:25:38;54.83;;;30.95;;
51216;SDS011;37283;49.760;8.648;2024-01-11T06:28:05;52.40;;;30.17;;
51216;SDS011;37283;49.760;8.648;2024-01-11T06:30:33;60.33;;;31.80;;
51216;SDS011;37283;49.760;8.648;2024-01-11T06:32:59;57.47;;;31.98;;
51216;SDS011;37283;49.760;8.648;2024-01-11T06:35:26;64.35;;;32.08;;
51216;SDS011;37283;49.760;8.648;2024-01-11T06:37:53;59.33;;;31.52;;
51216;SDS011;37283;49.760;8.648;2024-01-11T06:40:19;61.72;;;33.83;;
51216;SDS011;37283;49.760;8.648;2024-01-11T06:42:46;60.05;;;32.28;;
51216;SDS011;37283;49.760;8.648;2024-01-11T06:45:12;61.38;;;32.53;;
51216;SDS011;37283;49.760;8.648;2024-01-11T06:47:39;64.10;;;33.45;;
51216;SDS011;37283;49.760;8.648;2024-01-11T06:50:06;62.55;;;33.60;;
51216;SDS011;37283;49.760;8.648;2024-01-11T06:52:34;63.53;;;33.88;;
51216;SDS011;37283;49.760;8.648;2024-01-11T06:55:01;59.28;;;31.92;;
51216;SDS011;37283;49.760;8.648;2024-01-11T06:57:28;61.90;;;33.78;;
51216;SDS011;37283;49.760;8.648;2024-01-11T06:59:54;64.85;;;33.33;;
51216;SDS011;37283;49.760;8.648;2024-01-11T07:02:21;61.20;;;32.50;;
51216;SDS011;37283;49.760;8.648;2024-01-11T07:04:48;60.40;;;32.22;;
51216;SDS011;37283;49.760;8.648;2024-01-11T07:07:15;58.80;;;33.05;;
51216;SDS011;37283;49.760;8.648;2024-01-11T07:09:41;68.72;;;34.25;;
51216;SDS011;37283;49.760;8.648;2024-01-11T07:12:08;62.75;;;33.10;;
51216;SDS011;37283;49.760;8.648;2024-01-11T07:14:35;57.83;;;32.72;;
51216;SDS011;37283;49.760;8.648;2024-01-11T07:17:02;61.55;;;31.60;;
51216;SDS011;37283;49.760;8.648;2024-01-11T07:19:30;55.88;;;31.23;;
51216;SDS011;37283;49.760;8.648;2024-01-11T07:21:57;60.00;;;32.88;;
51216;SDS011;37283;49.760;8.648;2024-01-11T07:24:23;61.13;;;31.70;;
51216;SDS011;37283;49.760;8.648;2024-01-11T07:26:51;65.97;;;33.22;;
51216;SDS011;37283;49.760;8.648;2024-01-11T07:29:18;60.58;;;33.47;;
51216;SDS011;37283;49.760;8.648;2024-01-11T07:31:46;64.13;;;34.97;;
51216;SDS011;37283;49.760;8.648;2024-01-11T07:34:13;64.45;;;34.50;;
51216;SDS011;37283;49.760;8.648;2024-01-11T07:36:39;62.55;;;33.13;;
51216;SDS011;37283;49.760;8.648;2024-01-11T07:39:06;64.30;;;33.58;;
51216;SDS011;37283;49.760;8.648;2024-01-11T07:41:34;63.75;;;32.83;;
51216;SDS011;37283;49.760;8.648;2024-01-11T07:44:00;61.88;;;34.28;;
51216;SDS011;37283;49.760;8.648;2024-01-11T07:46:27;61.00;;;33.13;;
51216;SDS011;37283;49.760;8.648;2024-01-11T07:49:04;63.15;;;33.65;;
51216;SDS011;37283;49.760;8.648;2024-01-11T07:51:32;63.72;;;34.17;;
51216;SDS011;37283;49.760;8.648;2024-01-11T07:54:00;65.65;;;33.95;;
51216;SDS011;37283;49.760;8.648;2024-01-11T07:56:27;63.55;;;34.25;;
51216;SDS011;37283;49.760;8.648;2024-01-11T07:58:54;60.72;;;33.63;;
51216;SDS011;37283;49.760;8.648;2024-01-11T08:01:20;68.13;;;34.55;;
51216;SDS011;37283;49.760;8.648;2024-01-11T08:03:47;64.38;;;34.03;;
51216;SDS011;37283;49.760;8.648;2024-01-11T08:06:14;62.90;;;33.42;;
51216;SDS011;37283;49.760;8.648;2024-01-11T08:08:41;67.38;;;35.25;;
51216;SDS011;37283;49.760;8.648;2024-01-11T08:11:07;62.33;;;32.00;;
51216;SDS011;37283;49.760;8.648;2024-01-11T08:13:34;65.05;;;33.55;;
51216;SDS011;37283;49.760;8.648;2024-01-11T08:16:01;69.07;;;34.22;;
51216;SDS011;37283;49.760;8.648;2024-01-11T08:18:31;69.18;;;36.33;;
51216;SDS011;37283;49.760;8.648;2024-01-11T08:20:58;67.07;;;34.70;;
51216;SDS011;37283;49.760;8.648;2024-01-11T08:23:24;63.80;;;33.72;;
51216;SDS011;37283;49.760;8.648;2024-01-11T08:25:51;64.18;;;34.45;;
51216;SDS011;37283;49.760;8.648;2024-01-11T08:28:18;67.72;;;34.95;;
51216;SDS011;37283;49.760;8.648;2024-01-11T08:30:47;64.03;;;34.05;;
51216;SDS011;37283;49.760;8.648;2024-01-11T08:33:13;66.55;;;35.30;;
51216;SDS011;37283;49.760;8.648;2024-01-11T08:35:40;64.10;;;34.95;;
51216;SDS011;37283;49.760;8.648;2024-01-11T08:38:08;60.55;;;35.55;;
51216;SDS011;37283;49.760;8.648;2024-01-11T08:40:35;62.33;;;33.80;;
51216;SDS011;37283;49.760;8.648;2024-01-11T08:43:02;69.95;;;36.88;;
51216;SDS011;37283;49.760;8.648;2024-01-11T08:45:30;62.67;;;34.17;;
51216;SDS011;37283;49.760;8.648;2024-01-11T08:47:57;64.82;;;34.13;;
51216;SDS011;37283;49.760;8.648;2024-01-11T08:50:24;62.40;;;33.67;;
51216;SDS011;37283;49.760;8.648;2024-01-11T08:52:52;67.05;;;34.78;;
51216;SDS011;37283;49.760;8.648;2024-01-11T08:55:21;65.53;;;35.53;;
51216;SDS011;37283;49.760;8.648;2024-01-11T08:57:48;63.58;;;33.85;;
51216;SDS011;37283;49.760;8.648;2024-01-11T09:00:15;63.58;;;34.03;;
51216;SDS011;37283;49.760;8.648;2024-01-11T09:02:45;63.35;;;33.00;;
51216;SDS011;37283;49.760;8.648;2024-01-11T09:05:15;59.15;;;32.80;;
51216;SDS011;37283;49.760;8.648;2024-01-11T09:07:42;65.43;;;32.42;;
51216;SDS011;37283;49.760;8.648;2024-01-11T09:10:09;60.38;;;32.03;;
51216;SDS011;37283;49.760;8.648;2024-01-11T09:12:35;67.43;;;33.22;;
51216;SDS011;37283;49.760;8.648;2024-01-11T09:15:02;61.88;;;33.05;;
51216;SDS011;37283;49.760;8.648;2024-01-11T09:17:29;53.53;;;30.88;;
51216;SDS011;37283;49.760;8.648;2024-01-11T09:19:56;60.42;;;32.42;;
51216;SDS011;37283;49.760;8.648;2024-01-11T09:22:22;57.92;;;31.90;;
51216;SDS011;37283;49.760;8.648;2024-01-11T09:24:49;60.58;;;32.70;;
51216;SDS011;37283;49.760;8.648;2024-01-11T09:27:15;62.03;;;32.20;;
51216;SDS011;37283;49.760;8.648;2024-01-11T09:29:43;55.75;;;32.35;;
51216;SDS011;37283;49.760;8.648;2024-01-11T09:32:10;61.42;;;33.95;;
51216;SDS011;37283;49.760;8.648;2024-01-11T09:34:37;74.18;;;38.40;;
51216;SDS011;37283;49.760;8.648;2024-01-11T09:37:04;64.45;;;35.90;;
51216;SDS011;37283;49.760;8.648;2024-01-11T09:39:31;69.50;;;40.63;;
51216;SDS011;37283;49.760;8.648;2024-01-11T09:41:58;81.07;;;41.53;;
51216;SDS011;37283;49.760;8.648;2024-01-11T09:44:33;73.97;;;39.70;;
51216;SDS011;37283;49.760;8.648;2024-01-11T09:47:00;101.85;;;54.15;;
51216;SDS011;37283;49.760;8.648;2024-01-11T09:51:57;80.97;;;43.55;;
51216;SDS011;37283;49.760;8.648;2024-01-11T09:54:23;64.13;;;36.88;;
51216;SDS011;37283;49.760;8.648;2024-01-11T09:56:51;67.25;;;37.30;;
51216;SDS011;37283;49.760;8.648;2024-01-11T09:59:20;60.87;;;33.73;;
51216;SDS011;37283;49.760;8.648;2024-01-11T10:01:48;54.67;;;29.75;;
51216;SDS011;37283;49.760;8.648;2024-01-11T10:04:15;57.47;;;31.95;;
51216;SDS011;37283;49.760;8.648;2024-01-11T10:06:42;58.95;;;33.78;;
51216;SDS011;37283;49.760;8.648;2024-01-11T10:09:09;58.88;;;32.85;;
51216;SDS011;37283;49.760;8.648;2024-01-11T10:11:36;62.35;;;36.13;;
51216;SDS011;37283;49.760;8.648;2024-01-11T10:14:04;60.65;;;37.05;;
51216;SDS011;37283;49.760;8.648;2024-01-11T10:16:31;59.28;;;32.55;;
51216;SDS011;37283;49.760;8.648;2024-01-11T10:18:58;60.35;;;33.03;;
51216;SDS011;37283;49.760;8.648;2024-01-11T10:21:25;59.35;;;33.42;;
51216;SDS011;37283;49.760;8.648;2024-01-11T10:23:53;56.17;;;31.33;;
51216;SDS011;37283;49.760;8.648;2024-01-11T10:26:19;54.88;;;30.88;;
51216;SDS011;37283;49.760;8.648;2024-01-11T10:28:47;55.92;;;31.80;;
51216;SDS011;37283;49.760;8.648;2024-01-11T10:31:14;56.30;;;31.05;;
51216;SDS011;37283;49.760;8.648;2024-01-11T10:33:44;58.85;;;31.60;;
51216;SDS011;37283;49.760;8.648;2024-01-11T10:36:11;57.90;;;32.08;;
51216;SDS011;37283;49.760;8.648;2024-01-11T10:38:38;54.83;;;32.38;;
51216;SDS011;37283;49.760;8.648;2024-01-11T10:41:06;56.00;;;30.23;;
51216;SDS011;37283;49.760;8.648;2024-01-11T10:43:36;54.70;;;31.38;;
51216;SDS011;37283;49.760;8.648;2024-01-11T10:46:03;58.17;;;31.30;;
51216;SDS011;37283;49.760;8.648;2024-01-11T10:48:33;52.95;;;29.80;;
51216;SDS011;37283;49.760;8.648;2024-01-11T10:51:05;55.05;;;31.48;;
51216;SDS011;37283;49.760;8.648;2024-01-11T10:53:39;51.47;;;29.30;;
51216;SDS011;37283;49.760;8.648;2024-01-11T10:56:09;50.22;;;28.35;;
51216;SDS011;37283;49.760;8.648;2024-01-11T10:58:42;56.47;;;30.92;;
51216;SDS011;37283;49.760;8.648;2024-01-11T11:01:10;55.50;;;29.35;;
51216;SDS011;37283;49.760;8.648;2024-01-11T11:03:37;50.50;;;29.00;;
51216;SDS011;37283;49.760;8.648;2024-01-11T11:08:33;55.30;;;29.13;;
51216;SDS011;37283;49.760;8.648;2024-01-11T11:11:01;50.80;;;29.48;;
51216;SDS011;37283;49.760;8.648;2024-01-11T11:13:31;49.47;;;29.15;;
51216;SDS011;37283;49.760;8.648;2024-01-11T11:15:58;51.05;;;29.13;;
51216;SDS011;37283;49.760;8.648;2024-01-11T11:18:27;48.88;;;29.02;;
51216;SDS011;37283;49.760;8.648;2024-01-11T11:20:54;53.28;;;29.90;;
51216;SDS011;37283;49.760;8.648;2024-01-11T11:23:21;48.67;;;29.30;;
51216;SDS011;37283;49.760;8.648;2024-01-11T11:25:48;46.97;;;28.02;;
51216;SDS011;37283;49.760;8.648;2024-01-11T11:28:16;44.10;;;25.73;;
51216;SDS011;37283;49.760;8.648;2024-01-11T11:30:44;47.83;;;27.87;;
51216;SDS011;37283;49.760;8.648;2024-01-11T11:33:18;49.17;;;28.08;;
51216;SDS011;37283;49.760;8.648;2024-01-11T11:35:53;48.10;;;28.33;;
51216;SDS011;37283;49.760;8.648;2024-01-11T11:38:21;46.67;;;26.45;;
51216;SDS011;37283;49.760;8.648;2024-01-11T11:40:50;45.88;;;28.17;;
51216;SDS011;37283;49.760;8.648;2024-01-11T11:43:18;46.03;;;28.05;;
51216;SDS011;37283;49.760;8.648;2024-01-11T11:45:46;49.95;;;27.92;;
51216;SDS011;37283;49.760;8.648;2024-01-11T11:53:46;45.13;;;27.80;;
51216;SDS011;37283;49.760;8.648;2024-01-11T11:56:15;49.25;;;27.23;;
51216;SDS011;37283;49.760;8.648;2024-01-11T11:58:43;46.28;;;27.80;;
51216;SDS011;37283;49.760;8.648;2024-01-11T12:01:11;44.60;;;26.05;;
51216;SDS011;37283;49.760;8.648;2024-01-11T12:03:40;46.03;;;27.67;;
51216;SDS011;37283;49.760;8.648;2024-01-11T12:06:07;46.85;;;26.73;;
51216;SDS011;37283;49.760;8.648;2024-01-11T12:08:35;46.30;;;26.25;;
51216;SDS011;37283;49.760;8.648;2024-01-11T12:11:03;45.83;;;26.60;;
51216;SDS011;37283;49.760;8.648;2024-01-11T12:13:30;42.97;;;26.25;;
51216;SDS011;37283;49.760;8.648;2024-01-11T12:15:58;45.67;;;25.20;;
51216;SDS011;37283;49.760;8.648;2024-01-11T12:18:25;40.10;;;23.90;;
51216;SDS011;37283;49.760;8.648;2024-01-11T12:20:52;39.70;;;24.23;;
51216;SDS011;37283;49.760;8.648;2024-01-11T12:23:19;39.20;;;23.75;;
51216;SDS011;37283;49.760;8.648;2024-01-11T12:25:46;39.33;;;24.17;;
51216;SDS011;37283;49.760;8.648;2024-01-11T12:28:13;37.90;;;22.00;;
51216;SDS011;37283;49.760;8.648;2024-01-11T12:30:40;37.90;;;21.55;;
51216;SDS011;37283;49.760;8.648;2024-01-11T12:33:08;38.65;;;22.77;;
51216;SDS011;37283;49.760;8.648;2024-01-11T12:35:36;39.45;;;22.85;;
51216;SDS011;37283;49.760;8.648;2024-01-11T12:38:04;41.35;;;24.13;;
51216;SDS011;37283;49.760;8.648;2024-01-11T12:40:32;39.33;;;23.75;;
51216;SDS011;37283;49.760;8.648;2024-01-11T12:43:01;37.80;;;22.15;;
51216;SDS011;37283;49.760;8.648;2024-01-11T12:45:27;33.78;;;20.42;;
51216;SDS011;37283;49.760;8.648;2024-01-11T12:47:55;29.23;;;18.52;;
51216;SDS011;37283;49.760;8.648;2024-01-11T12:50:23;29.00;;;18.50;;
51216;SDS011;37283;49.760;8.648;2024-01-11T12:53:12;37.13;;;19.85;;
51216;SDS011;37283;49.760;8.648;2024-01-11T12:55:46;38.38;;;23.17;;
51216;SDS011;37283;49.760;8.648;2024-01-11T12:58:23;36.88;;;23.15;;
51216;SDS011;37283;49.760;8.648;2024-01-11T13:00:52;38.60;;;23.23;;
51216;SDS011;37283;49.760;8.648;2024-01-11T13:03:19;40.90;;;23.50;;
51216;SDS011;37283;49.760;8.648;2024-01-11T13:05:47;36.10;;;21.63;;
51216;SDS011;37283;49.760;8.648;2024-01-11T13:08:15;36.92;;;21.38;;
51216;SDS011;37283;49.760;8.648;2024-01-11T13:10:44;33.03;;;21.58;;
51216;SDS011;37283;49.760;8.648;2024-01-11T13:13:13;32.60;;;20.35;;
51216;SDS011;37283;49.760;8.648;2024-01-11T13:15:40;37.30;;;21.90;;
51216;SDS011;37283;49.760;8.648;2024-01-11T13:18:06;31.00;;;19.73;;
51216;SDS011;37283;49.760;8.648;2024-01-11T13:20:33;32.78;;;20.08;;
51216;SDS011;37283;49.760;8.648;2024-01-11T13:23:13;34.75;;;20.15;;
51216;SDS011;37283;49.760;8.648;2024-01-11T13:25:48;31.52;;;19.52;;
51216;SDS011;37283;49.760;8.648;2024-01-11T13:28:18;37.97;;;25.60;;
51216;SDS011;37283;49.760;8.648;2024-01-11T13:30:47;37.03;;;20.52;;
51216;SDS011;37283;49.760;8.648;2024-01-11T13:33:15;36.28;;;22.90;;
51216;SDS011;37283;49.760;8.648;2024-01-11T13:35:44;31.27;;;19.13;;
51216;SDS011;37283;49.760;8.648;2024-01-11T13:38:11;33.25;;;22.05;;
51216;SDS011;37283;49.760;8.648;2024-01-11T13:40:38;34.53;;;21.23;;
51216;SDS011;37283;49.760;8.648;2024-01-11T13:43:06;33.78;;;20.92;;
51216;SDS011;37283;49.760;8.648;2024-01-11T13:45:33;31.33;;;20.00;;
51216;SDS011;37283;49.760;8.648;2024-01-11T13:48:05;34.13;;;21.02;;
51216;SDS011;37283;49.760;8.648;2024-01-11T13:50:32;36.38;;;21.17;;
51216;SDS011;37283;49.760;8.648;2024-01-11T13:53:00;32.58;;;21.58;;
51216;SDS011;37283;49.760;8.648;2024-01-11T13:55:27;33.38;;;20.55;;
51216;SDS011;37283;49.760;8.648;2024-01-11T13:57:55;35.10;;;21.77;;
51216;SDS011;37283;49.760;8.648;2024-01-11T14:00:22;34.78;;;22.35;;
51216;SDS011;37283;49.760;8.648;2024-01-11T14:02:48;33.88;;;23.05;;
51216;SDS011;37283;49.760;8.648;2024-01-11T14:05:15;38.20;;;24.38;;
51216;SDS011;37283;49.760;8.648;2024-01-11T14:07:45;39.47;;;25.10;;
51216;SDS011;37283;49.760;8.648;2024-01-11T14:10:12;42.90;;;24.83;;
51216;SDS011;37283;49.760;8.648;2024-01-11T14:12:39;41.17;;;25.38;;
51216;SDS011;37283;49.760;8.648;2024-01-11T14:15:06;41.17;;;25.75;;
51216;SDS011;37283;49.760;8.648;2024-01-11T14:17:38;42.35;;;25.83;;
51216;SDS011;37283;49.760;8.648;2024-01-11T14:20:05;45.15;;;26.40;;
51216;SDS011;37283;49.760;8.648;2024-01-11T14:22:38;45.15;;;26.13;;
51216;SDS011;37283;49.760;8.648;2024-01-11T14:25:06;44.58;;;27.15;;
51216;SDS011;37283;49.760;8.648;2024-01-11T14:27:33;41.80;;;25.30;;
51216;SDS011;37283;49.760;8.648;2024-01-11T14:29:59;44.92;;;26.42;;
51216;SDS011;37283;49.760;8.648;2024-01-11T14:32:26;42.40;;;26.25;;
51216;SDS011;37283;49.760;8.648;2024-01-11T14:35:02;47.47;;;26.10;;